createdAt,value
2023-02-23T00:02:03.862Z,-3.30
2023-02-23T00:04:31.426Z,-3.21
2023-02-23T00:06:59.075Z,-3.41
2023-02-23T00:09:28.131Z,-3.35
2023-02-23T00:11:57.389Z,-3.41
2023-02-23T00:14:27.429Z,-3.39
2023-02-23T00:16:56.473Z,-3.36
2023-02-23T00:19:25.110Z,-3.40
2023-02-23T00:21:53.824Z,-3.45
2023-02-23T00:24:23.376Z,-3.43
2023-02-23T00:26:51.710Z,-3.44
2023-02-23T00:29:21.771Z,-3.61
2023-02-23T00:31:50.218Z,-3.67
2023-02-23T00:34:23.770Z,-3.72
2023-02-23T00:36:55.662Z,-3.84
2023-02-23T00:39:26.649Z,-3.61
2023-02-23T00:41:55.695Z,-3.58
2023-02-23T00:44:23.723Z,-3.78
2023-02-23T00:46:52.234Z,-3.59
2023-02-23T00:49:23.876Z,-3.55
2023-02-23T00:51:52.392Z,-3.77
2023-02-23T00:54:20.839Z,-3.91
2023-02-23T00:56:48.530Z,-3.94
2023-02-23T00:59:16.427Z,-3.76
2023-02-23T01:01:44.300Z,-3.68
2023-02-23T01:04:12.228Z,-3.72
2023-02-23T01:06:40.990Z,-3.71
2023-02-23T01:09:09.983Z,-3.79
2023-02-23T01:11:41.627Z,-3.97
2023-02-23T01:14:10.460Z,-4.01
2023-02-23T01:16:39.160Z,-3.98
2023-02-23T01:19:10.058Z,-3.99
2023-02-23T01:21:38.808Z,-4.12
2023-02-23T01:24:07.182Z,-4.01
2023-02-23T01:26:38.258Z,-4.13
2023-02-23T01:29:11.400Z,-4.20
2023-02-23T01:31:40.519Z,-4.28
2023-02-23T01:34:12.050Z,-4.24
2023-02-23T01:36:41.280Z,-4.33
2023-02-23T01:39:12.299Z,-4.34
2023-02-23T01:41:44.895Z,-4.48
2023-02-23T01:44:15.878Z,-4.54
2023-02-23T01:46:45.803Z,-4.52
2023-02-23T01:49:20.388Z,-4.46
2023-02-23T01:51:50.267Z,-4.48
2023-02-23T01:54:42.149Z,-4.48
2023-02-23T01:57:12.021Z,-4.52
2023-02-23T01:59:49.186Z,-4.56
2023-02-23T02:02:18.213Z,-4.71
2023-02-23T02:04:46.985Z,-4.72
2023-02-23T02:07:25.142Z,-4.72
2023-02-23T02:10:12.423Z,-4.64
2023-02-23T02:12:44.744Z,-4.67
2023-02-23T02:15:18.200Z,-4.71
2023-02-23T02:18:10.760Z,-4.64
2023-02-23T02:21:12.318Z,-4.85
2023-02-23T02:24:02.030Z,-4.77
2023-02-23T02:26:48.064Z,-4.78
2023-02-23T02:29:42.925Z,-4.87
2023-02-23T02:33:01.978Z,-4.73
2023-02-23T02:35:50.285Z,-4.80
2023-02-23T02:38:43.095Z,-4.90
2023-02-23T02:41:30.432Z,-4.88
2023-02-23T02:44:20.273Z,-4.81
2023-02-23T02:46:49.399Z,-4.88
2023-02-23T02:49:35.286Z,-4.84
2023-02-23T02:52:12.021Z,-5.05
2023-02-23T02:54:57.376Z,-5.12
2023-02-23T02:57:26.657Z,-5.01
2023-02-23T03:00:13.218Z,-5.07
2023-02-23T03:02:59.355Z,-5.10
2023-02-23T03:05:49.122Z,-5.25
2023-02-23T03:08:58.088Z,-5.10
2023-02-23T03:11:50.155Z,-5.11
2023-02-23T03:14:40.569Z,-5.20
2023-02-23T03:17:58.572Z,-5.07
2023-02-23T03:21:02.676Z,-5.06
2023-02-23T03:24:21.232Z,-5.30
2023-02-23T03:27:20.062Z,-5.30
2023-02-23T03:30:19.485Z,-5.20
2023-02-23T03:33:14.474Z,-5.25
2023-02-23T03:36:13.023Z,-5.35
2023-02-23T03:39:13.007Z,-5.27
2023-02-23T03:42:00.294Z,-5.47
2023-02-23T03:44:58.165Z,-5.43
2023-02-23T03:47:46.309Z,-5.55
2023-02-23T03:50:49.563Z,-5.51
2023-02-23T03:53:37.055Z,-5.58
2023-02-23T03:56:23.575Z,-5.41
2023-02-23T03:59:11.111Z,-5.39
2023-02-23T04:01:57.215Z,-5.45
2023-02-23T04:04:43.227Z,-5.40
2023-02-23T04:07:29.237Z,-5.39
2023-02-23T04:10:15.383Z,-5.69
2023-02-23T04:13:34.106Z,-5.71
2023-02-23T04:16:29.916Z,-5.57
2023-02-23T04:18:57.631Z,-5.56
2023-02-23T04:21:25.286Z,-5.62
2023-02-23T04:23:52.821Z,-5.51
2023-02-23T04:26:20.538Z,-5.61
2023-02-23T04:28:48.314Z,-5.49
2023-02-23T04:31:18.412Z,-5.67
2023-02-23T04:33:46.121Z,-5.43
2023-02-23T04:36:13.638Z,-5.38
2023-02-23T04:38:41.365Z,-5.54
2023-02-23T04:41:09.291Z,-5.51
2023-02-23T04:43:41.857Z,-5.44
2023-02-23T04:46:09.786Z,-5.37
2023-02-23T04:48:37.360Z,-5.36
2023-02-23T04:51:05.097Z,-5.33
2023-02-23T04:53:32.692Z,-5.32
2023-02-23T04:56:00.374Z,-5.35
2023-02-23T04:58:28.086Z,-5.33
2023-02-23T05:00:55.899Z,-5.17
2023-02-23T05:03:23.585Z,-5.17
2023-02-23T05:05:52.629Z,-5.08
2023-02-23T05:08:20.768Z,-5.08
2023-02-23T05:10:48.314Z,-5.07
2023-02-23T05:13:17.251Z,-5.08
2023-02-23T05:15:45.225Z,-4.85
2023-02-23T05:18:12.847Z,-4.87
2023-02-23T05:20:44.919Z,-4.68
2023-02-23T05:23:13.421Z,-4.97
2023-02-23T05:25:41.975Z,-4.75
2023-02-23T05:28:11.125Z,-4.72
2023-02-23T05:30:38.954Z,-4.57
2023-02-23T05:33:06.530Z,-4.41
2023-02-23T05:35:34.705Z,-4.55
2023-02-23T05:38:02.230Z,-4.47
2023-02-23T05:40:30.386Z,-4.43
2023-02-23T05:43:00.702Z,-4.46
2023-02-23T05:45:28.282Z,-4.48
2023-02-23T05:47:56.417Z,-4.42
2023-02-23T05:50:23.954Z,-4.15
2023-02-23T05:52:53.983Z,-4.37
2023-02-23T05:55:21.469Z,-4.27
2023-02-23T05:57:50.830Z,-4.17
2023-02-23T06:00:18.778Z,-4.09
2023-02-23T06:02:53.157Z,-4.03
2023-02-23T06:05:20.762Z,-3.97
2023-02-23T06:07:48.290Z,-3.98
2023-02-23T06:10:15.926Z,-4.15
2023-02-23T06:12:43.471Z,-3.98
2023-02-23T06:15:11.690Z,-3.90
2023-02-23T06:17:39.270Z,-3.74
2023-02-23T06:20:07.402Z,-3.75
2023-02-23T06:22:37.322Z,-3.70
2023-02-23T06:25:06.524Z,-3.35
2023-02-23T06:27:34.230Z,-3.50
2023-02-23T06:30:01.754Z,-3.53
2023-02-23T06:32:29.673Z,-3.55
2023-02-23T06:34:57.564Z,-3.51
2023-02-23T06:37:25.731Z,-3.49
2023-02-23T06:39:53.474Z,-3.30
2023-02-23T06:42:21.242Z,-3.37
2023-02-23T06:44:49.504Z,-3.58
2023-02-23T06:47:17.472Z,-3.28
2023-02-23T06:49:45.268Z,-3.24
2023-02-23T06:52:13.921Z,-3.44
2023-02-23T06:54:42.110Z,-3.45
2023-02-23T06:57:10.072Z,-3.50
2023-02-23T06:59:37.983Z,-3.23
2023-02-23T07:02:07.470Z,-3.14
2023-02-23T07:04:36.413Z,-3.33
2023-02-23T07:07:05.501Z,-2.92
2023-02-23T07:09:34.256Z,-2.95
2023-02-23T07:12:05.568Z,-2.84
2023-02-23T07:14:35.901Z,-2.93
2023-02-23T07:17:07.016Z,-3.11
2023-02-23T07:19:40.217Z,-2.94
2023-02-23T07:22:08.240Z,-2.94
2023-02-23T07:24:36.301Z,-3.21
2023-02-23T07:27:04.921Z,-3.01
2023-02-23T07:29:33.385Z,-2.69
2023-02-23T07:32:01.910Z,-2.65
2023-02-23T07:34:29.925Z,-2.68
2023-02-23T07:36:58.171Z,-2.42
2023-02-23T07:39:26.445Z,-2.21
2023-02-23T07:41:54.860Z,-2.37
2023-02-23T07:44:29.778Z,-2.40
2023-02-23T07:46:58.568Z,-2.34
2023-02-23T07:49:26.651Z,-2.50
2023-02-23T07:51:55.381Z,-2.33
2023-02-23T07:54:23.973Z,-2.32
2023-02-23T07:56:52.757Z,-2.43
2023-02-23T07:59:21.901Z,-2.48
2023-02-23T08:01:49.837Z,-2.32
2023-02-23T08:04:17.925Z,-1.89
2023-02-23T08:06:46.011Z,-2.14
2023-02-23T08:09:15.189Z,-2.27
2023-02-23T08:11:44.262Z,-2.30
2023-02-23T08:14:15.118Z,-2.11
2023-02-23T08:16:43.722Z,-1.89
2023-02-23T08:19:19.435Z,-1.86
2023-02-23T08:21:47.528Z,-1.87
2023-02-23T08:24:17.712Z,-1.70
2023-02-23T08:26:47.043Z,-1.88
2023-02-23T08:29:18.547Z,-2.14
2023-02-23T08:31:47.249Z,-2.09
2023-02-23T08:34:19.797Z,-2.04
2023-02-23T08:36:48.449Z,-1.92
2023-02-23T08:39:21.308Z,-1.75
2023-02-23T08:41:49.656Z,-1.71
2023-02-23T08:44:17.467Z,-1.56
2023-02-23T08:47:42.142Z,-1.62
2023-02-23T08:50:30.420Z,-1.41
2023-02-23T08:52:58.452Z,-1.61
2023-02-23T08:55:26.794Z,-1.69
2023-02-23T08:57:59.355Z,-1.65
2023-02-23T09:00:27.587Z,-1.52
2023-02-23T09:02:57.584Z,-1.63
2023-02-23T09:05:25.634Z,-1.64
2023-02-23T09:07:54.474Z,-1.44
2023-02-23T09:10:25.076Z,-1.71
2023-02-23T09:12:58.795Z,-1.34
2023-02-23T09:15:26.776Z,-1.15
2023-02-23T09:17:54.740Z,-1.06
2023-02-23T09:20:27.146Z,-1.09
2023-02-23T09:22:55.908Z,-1.32
2023-02-23T09:25:29.384Z,-0.91
2023-02-23T09:27:57.801Z,-0.90
2023-02-23T09:30:26.426Z,-1.03
2023-02-23T09:32:57.510Z,-0.72
2023-02-23T09:35:25.753Z,-0.66
2023-02-23T09:37:55.103Z,-1.06
2023-02-23T09:40:32.110Z,-0.43
2023-02-23T09:43:36.710Z,-0.60
2023-02-23T09:46:45.550Z,-0.63
2023-02-23T09:49:18.943Z,-0.34
2023-02-23T09:51:49.379Z,-0.51
2023-02-23T09:54:17.488Z,-0.81
2023-02-23T09:56:48.959Z,-0.55
2023-02-23T09:59:20.742Z,-0.65
2023-02-23T10:01:48.627Z,-0.36
2023-02-23T10:04:29.195Z,-0.63
2023-02-23T10:07:00.113Z,-0.58
2023-02-23T10:09:49.763Z,-0.41
2023-02-23T10:12:26.770Z,-0.02
2023-02-23T10:15:07.068Z,0.19
2023-02-23T10:17:51.963Z,-0.13
2023-02-23T10:20:41.753Z,-0.53
2023-02-23T10:23:14.004Z,0.01
2023-02-23T10:25:46.809Z,0.03
2023-02-23T10:28:16.686Z,-0.55
2023-02-23T10:30:44.555Z,-0.10
2023-02-23T10:33:20.903Z,0.21
2023-02-23T10:36:03.826Z,-0.31
2023-02-23T10:38:40.532Z,-0.40
2023-02-23T10:41:09.391Z,-0.11
2023-02-23T10:43:39.249Z,-0.09
2023-02-23T10:46:07.120Z,0.31
2023-02-23T10:48:40.103Z,-0.11
2023-02-23T10:51:19.573Z,0.31
2023-02-23T10:53:51.061Z,0.46
2023-02-23T10:56:20.069Z,0.40
2023-02-23T10:58:52.801Z,0.39
2023-02-23T11:01:33.065Z,0.51
2023-02-23T11:04:14.216Z,0.23
2023-02-23T11:06:43.836Z,0.18
2023-02-23T11:09:47.564Z,-0.09
2023-02-23T11:12:25.584Z,0.23
2023-02-23T11:14:55.231Z,0.25
2023-02-23T11:17:27.818Z,0.64
2023-02-23T11:20:19.376Z,0.51
2023-02-23T11:22:48.168Z,0.55
2023-02-23T11:25:20.323Z,0.99
2023-02-23T11:27:52.481Z,0.33
2023-02-23T11:30:22.014Z,0.60
2023-02-23T11:32:55.005Z,0.42
2023-02-23T11:35:22.714Z,0.72
2023-02-23T11:37:50.828Z,0.75
2023-02-23T11:40:21.624Z,0.54
2023-02-23T11:43:10.034Z,0.41
2023-02-23T11:45:45.741Z,0.42
2023-02-23T11:48:33.051Z,0.52
2023-02-23T11:51:00.739Z,0.60
2023-02-23T11:53:46.582Z,0.49
2023-02-23T11:56:14.779Z,0.78
2023-02-23T11:59:21.343Z,0.17
2023-02-23T12:01:53.691Z,0.83
2023-02-23T12:04:49.673Z,0.74
2023-02-23T12:07:23.529Z,1.04
2023-02-23T12:09:59.574Z,1.29
2023-02-23T12:12:28.371Z,1.33
2023-02-23T12:15:00.554Z,1.67
2023-02-23T12:17:31.985Z,1.89
2023-02-23T12:20:25.525Z,1.76
2023-02-23T12:23:13.990Z,1.85
2023-02-23T12:26:01.980Z,1.68
2023-02-23T12:29:00.668Z,1.80
2023-02-23T12:31:48.132Z,1.98
2023-02-23T12:34:24.283Z,2.20
2023-02-23T12:37:07.716Z,2.26
2023-02-23T12:39:36.940Z,2.53
2023-02-23T12:42:44.839Z,2.73
2023-02-23T12:45:34.178Z,2.31
2023-02-23T12:48:20.813Z,2.93
2023-02-23T12:50:53.345Z,2.94
2023-02-23T12:53:29.365Z,3.35
2023-02-23T12:56:04.620Z,2.95
2023-02-23T12:58:38.665Z,3.02
2023-02-23T13:01:13.043Z,2.79
2023-02-23T13:03:51.635Z,3.19
2023-02-23T13:06:53.192Z,3.05
2023-02-23T13:09:23.629Z,3.11
2023-02-23T13:12:19.566Z,3.67
2023-02-23T13:14:58.849Z,3.97
2023-02-23T13:17:26.773Z,4.12
2023-02-23T13:19:58.984Z,3.54
2023-02-23T13:22:30.825Z,3.79
2023-02-23T13:25:00.027Z,4.11
2023-02-23T13:27:36.021Z,3.43
2023-02-23T13:30:04.675Z,4.28
2023-02-23T13:32:33.750Z,3.47
2023-02-23T13:35:03.016Z,3.10
2023-02-23T13:37:35.242Z,3.12
2023-02-23T13:40:22.970Z,3.88
2023-02-23T13:43:18.021Z,3.72
2023-02-23T13:46:01.904Z,3.78
2023-02-23T13:48:56.066Z,3.88
2023-02-23T13:51:58.278Z,3.80
2023-02-23T13:54:32.443Z,4.27
2023-02-23T13:57:05.788Z,3.64
2023-02-23T13:59:39.208Z,3.69
2023-02-23T14:02:33.193Z,3.69
2023-02-23T14:05:30.388Z,2.85
2023-02-23T14:08:05.843Z,2.47
2023-02-23T14:10:40.806Z,2.55
2023-02-23T14:13:25.508Z,1.88
2023-02-23T14:16:11.172Z,1.74
2023-02-23T14:18:56.429Z,1.93
2023-02-23T14:21:29.232Z,2.13
2023-02-23T14:24:13.559Z,2.31
2023-02-23T14:26:46.228Z,2.18
2023-02-23T14:29:18.062Z,1.74
2023-02-23T14:31:59.424Z,1.52
2023-02-23T14:34:51.352Z,1.66
2023-02-23T14:37:37.925Z,1.20
2023-02-23T14:40:37.722Z,0.66
2023-02-23T14:43:32.085Z,0.79
2023-02-23T14:46:01.328Z,0.57
2023-02-23T14:48:29.221Z,0.64
2023-02-23T14:51:17.141Z,0.59
2023-02-23T14:53:44.826Z,0.81
2023-02-23T14:56:20.596Z,0.85
2023-02-23T14:58:52.900Z,0.70
2023-02-23T15:01:37.625Z,0.64
2023-02-23T15:04:12.840Z,0.61
2023-02-23T15:06:42.548Z,0.37
2023-02-23T15:09:33.827Z,0.41
2023-02-23T15:12:03.419Z,0.31
2023-02-23T15:14:31.268Z,0.26
2023-02-23T15:16:59.199Z,0.15
2023-02-23T15:19:28.795Z,0.16
2023-02-23T15:21:57.391Z,0.09
2023-02-23T15:24:31.744Z,-0.01
2023-02-23T15:26:59.966Z,-0.03
2023-02-23T15:29:32.656Z,-0.14
2023-02-23T15:32:21.070Z,-0.21
2023-02-23T15:34:49.068Z,-0.36
2023-02-23T15:37:21.877Z,-0.37
2023-02-23T15:39:54.836Z,-0.38
2023-02-23T15:42:29.080Z,-0.41
2023-02-23T15:45:01.014Z,-0.39
2023-02-23T15:47:35.790Z,-0.46
2023-02-23T15:50:34.919Z,-0.44
2023-02-23T15:53:29.368Z,-0.46
2023-02-23T15:56:03.062Z,-0.55
2023-02-23T15:58:41.749Z,-0.70
2023-02-23T16:01:15.534Z,-0.66
2023-02-23T16:03:47.170Z,-0.64
2023-02-23T16:06:24.390Z,-0.67
2023-02-23T16:09:06.053Z,-0.65
2023-02-23T16:11:37.816Z,-0.75
2023-02-23T16:14:06.932Z,-0.79
2023-02-23T16:16:36.599Z,-0.81
2023-02-23T16:19:05.306Z,-1.00
2023-02-23T16:21:33.217Z,-1.11
2023-02-23T16:24:06.892Z,-1.00
2023-02-23T16:26:52.138Z,-0.95
2023-02-23T16:29:41.723Z,-1.02
2023-02-23T16:32:20.015Z,-1.06
2023-02-23T16:35:00.642Z,-1.12
2023-02-23T16:37:28.767Z,-1.24
2023-02-23T16:39:57.309Z,-1.32
2023-02-23T16:42:34.842Z,-1.43
2023-02-23T16:45:02.765Z,-1.27
2023-02-23T16:47:36.573Z,-1.33
2023-02-23T16:50:20.728Z,-1.39
2023-02-23T16:52:52.507Z,-1.53
2023-02-23T16:55:27.423Z,-1.69
2023-02-23T16:57:59.639Z,-1.87
2023-02-23T17:00:32.189Z,-2.07
2023-02-23T17:03:06.387Z,-2.22
2023-02-23T17:05:35.064Z,-2.32
2023-02-23T17:08:05.057Z,-2.47
2023-02-23T17:10:33.865Z,-2.60
2023-02-23T17:13:05.150Z,-2.73
2023-02-23T17:15:38.246Z,-2.87
2023-02-23T17:18:06.035Z,-2.95
2023-02-23T17:20:33.702Z,-3.03
2023-02-23T17:23:02.058Z,-3.08
2023-02-23T17:25:30.108Z,-3.11
2023-02-23T17:27:58.004Z,-3.18
2023-02-23T17:30:25.623Z,-3.21
2023-02-23T17:32:54.573Z,-3.25
2023-02-23T17:35:22.595Z,-3.30
2023-02-23T17:37:50.908Z,-3.33
2023-02-23T17:40:31.244Z,-3.34
2023-02-23T17:42:59.793Z,-3.40
2023-02-23T17:45:28.091Z,-3.42
2023-02-23T17:47:55.875Z,-3.46
2023-02-23T17:50:24.289Z,-3.53
2023-02-23T17:52:51.818Z,-3.56
2023-02-23T17:55:19.754Z,-3.57
2023-02-23T17:57:47.724Z,-3.58
2023-02-23T18:00:16.649Z,-3.60
2023-02-23T18:02:45.538Z,-3.64
2023-02-23T18:05:13.628Z,-3.64
2023-02-23T18:07:45.065Z,-3.65
2023-02-23T18:10:14.741Z,-3.64
2023-02-23T18:12:48.303Z,-3.70
2023-02-23T18:15:18.612Z,-3.81
2023-02-23T18:17:46.282Z,-3.84
2023-02-23T18:20:15.359Z,-3.87
2023-02-23T18:22:44.463Z,-3.90
2023-02-23T18:25:39.582Z,-3.96
2023-02-23T18:28:10.092Z,-4.05
2023-02-23T18:30:38.599Z,-4.10
2023-02-23T18:33:06.976Z,-4.10
2023-02-23T18:35:37.553Z,-4.11
2023-02-23T18:38:05.937Z,-4.16
2023-02-23T18:40:33.772Z,-4.22
2023-02-23T18:43:01.449Z,-4.25
2023-02-23T18:45:29.437Z,-4.27
2023-02-23T18:47:57.062Z,-4.27
2023-02-23T18:50:26.504Z,-4.26
2023-02-23T18:52:55.470Z,-4.27
2023-02-23T18:55:23.421Z,-4.32
2023-02-23T18:57:55.146Z,-4.36
2023-02-23T19:00:23.153Z,-4.40
2023-02-23T19:02:50.765Z,-4.45
2023-02-23T19:05:20.854Z,-4.52
2023-02-23T19:07:49.786Z,-4.51
2023-02-23T19:10:17.895Z,-4.51
2023-02-23T19:12:45.635Z,-4.60
2023-02-23T19:15:13.492Z,-4.62
2023-02-23T19:17:41.189Z,-4.65
2023-02-23T19:20:13.433Z,-4.67
2023-02-23T19:22:41.573Z,-4.67
2023-02-23T19:25:11.829Z,-4.65
2023-02-23T19:27:39.921Z,-4.66
2023-02-23T19:30:10.214Z,-4.64
2023-02-23T19:32:39.874Z,-4.61
2023-02-23T19:35:10.454Z,-4.60
2023-02-23T19:37:40.162Z,-4.60
2023-02-23T19:40:08.522Z,-4.62
2023-02-23T19:42:37.084Z,-4.62
2023-02-23T19:45:05.094Z,-4.59
2023-02-23T19:47:32.676Z,-4.47
2023-02-23T19:50:00.246Z,-4.41
2023-02-23T19:52:30.886Z,-4.40
2023-02-23T19:55:03.873Z,-4.38
2023-02-23T19:57:31.838Z,-4.36
2023-02-23T19:59:59.356Z,-4.35
2023-02-23T20:02:26.955Z,-4.34
2023-02-23T20:04:54.647Z,-4.34
2023-02-23T20:07:22.256Z,-4.33
2023-02-23T20:09:49.717Z,-4.33
2023-02-23T20:12:20.217Z,-4.30
2023-02-23T20:14:49.697Z,-4.28
2023-02-23T20:17:17.187Z,-4.25
2023-02-23T20:19:46.919Z,-4.21
2023-02-23T20:22:14.443Z,-4.13
2023-02-23T20:24:42.025Z,-4.02
2023-02-23T20:27:09.646Z,-3.94
2023-02-23T20:29:37.626Z,-3.84
2023-02-23T20:32:05.711Z,-3.80
2023-02-23T20:34:35.762Z,-3.75
2023-02-23T20:37:04.499Z,-3.71
2023-02-23T20:39:32.180Z,-3.65
2023-02-23T20:42:00.383Z,-3.60
2023-02-23T20:44:29.461Z,-3.57
2023-02-23T20:46:57.887Z,-3.58
2023-02-23T20:49:27.511Z,-3.56
2023-02-23T20:51:55.005Z,-3.58
2023-02-23T20:54:22.632Z,-3.63
2023-02-23T20:57:07.769Z,-3.66
2023-02-23T20:59:38.863Z,-3.67
2023-02-23T21:02:06.500Z,-3.66
2023-02-23T21:04:38.637Z,-3.73
2023-02-23T21:07:06.914Z,-3.77
2023-02-23T21:09:34.629Z,-3.82
2023-02-23T21:12:03.760Z,-3.80
2023-02-23T21:14:39.226Z,-3.83
2023-02-23T21:17:06.809Z,-3.87
2023-02-23T21:19:34.462Z,-3.87
2023-02-23T21:22:02.954Z,-3.93
2023-02-23T21:24:33.931Z,-4.02
2023-02-23T21:27:05.436Z,-4.07
2023-02-23T21:29:33.200Z,-4.18
2023-02-23T21:32:01.285Z,-4.28
2023-02-23T21:34:28.962Z,-4.36
2023-02-23T21:37:09.748Z,-4.36
2023-02-23T21:39:38.225Z,-4.40
2023-02-23T21:42:08.590Z,-4.42
2023-02-23T21:44:36.159Z,-4.44
2023-02-23T21:47:07.341Z,-4.44
2023-02-23T21:49:35.281Z,-4.45
2023-02-23T21:52:03.650Z,-4.46
2023-02-23T21:54:31.196Z,-4.34
2023-02-23T21:56:58.791Z,-4.29
2023-02-23T21:59:26.638Z,-4.22
2023-02-23T22:01:54.444Z,-4.20
2023-02-23T22:04:22.021Z,-4.11
2023-02-23T22:06:49.662Z,-4.04
2023-02-23T22:09:17.205Z,-4.02
2023-02-23T22:11:46.311Z,-3.89
2023-02-23T22:14:32.740Z,-3.68
2023-02-23T22:17:00.562Z,-3.68
2023-02-23T22:19:28.267Z,-3.59
2023-02-23T22:21:55.781Z,-3.62
2023-02-23T22:24:23.310Z,-3.56
2023-02-23T22:26:54.399Z,-3.56
2023-02-23T22:29:23.089Z,-3.61
2023-02-23T22:31:51.166Z,-3.60
2023-02-23T22:34:18.953Z,-3.62
2023-02-23T22:36:46.595Z,-3.58
2023-02-23T22:39:16.433Z,-3.60
2023-02-23T22:41:47.624Z,-3.64
2023-02-23T22:44:20.456Z,-3.68
2023-02-23T22:46:48.450Z,-3.75
2023-02-23T22:49:16.202Z,-3.76
2023-02-23T22:51:44.408Z,-3.75
2023-02-23T22:54:13.471Z,-3.75
2023-02-23T22:56:42.457Z,-3.78
2023-02-23T22:59:11.132Z,-3.78
2023-02-23T23:01:39.000Z,-3.76
2023-02-23T23:04:10.648Z,-3.76
2023-02-23T23:06:40.233Z,-3.78
2023-02-23T23:09:08.401Z,-3.80
2023-02-23T23:11:36.508Z,-3.82
2023-02-23T23:14:07.072Z,-3.89
2023-02-23T23:16:35.320Z,-3.91
2023-02-23T23:19:04.790Z,-3.92
2023-02-23T23:21:33.599Z,-3.90
2023-02-23T23:24:07.271Z,-3.91
2023-02-23T23:26:36.315Z,-3.92
2023-02-23T23:29:07.566Z,-3.94
2023-02-23T23:31:36.900Z,-3.94
2023-02-23T23:34:06.615Z,-3.91
2023-02-23T23:36:37.445Z,-3.87
2023-02-23T23:39:06.291Z,-3.92
2023-02-23T23:41:35.565Z,-3.98
2023-02-23T23:44:06.182Z,-3.96
2023-02-23T23:46:35.612Z,-3.93
2023-02-23T23:49:08.196Z,-3.96
2023-02-23T23:51:44.829Z,-3.93
2023-02-23T23:54:21.681Z,-3.93
2023-02-23T23:56:49.828Z,-3.95
2023-02-23T23:59:20.617Z,-3.98
